createdAt,value
2018-04-11T00:02:03.984Z,4.80
2018-04-11T00:04:30.246Z,8.10
2018-04-11T00:06:56.574Z,5.53
2018-04-11T00:09:22.867Z,7.23
2018-04-11T00:11:49.149Z,7.37
2018-04-11T00:14:16.231Z,11.27
2018-04-11T00:16:42.554Z,7.13
2018-04-11T00:19:09.536Z,8.93
2018-04-11T00:21:35.880Z,4.80
2018-04-11T00:24:02.411Z,7.90
2018-04-11T00:26:28.684Z,7.27
2018-04-11T00:28:54.979Z,6.90
2018-04-11T00:31:21.984Z,4.10
2018-04-11T00:33:48.296Z,4.60
2018-04-11T00:36:14.558Z,5.70
2018-04-11T00:38:40.877Z,5.73
2018-04-11T00:41:07.138Z,7.43
2018-04-11T00:43:33.439Z,4.13
2018-04-11T00:45:59.742Z,5.93
2018-04-11T00:48:26.043Z,5.33
2018-04-11T00:50:52.369Z,6.83
2018-04-11T00:53:25.459Z,4.03
2018-04-11T00:55:51.749Z,4.30
2018-04-11T00:58:18.002Z,4.67
2018-04-11T01:00:44.261Z,5.03
2018-04-11T01:03:10.541Z,4.20
2018-04-11T01:05:37.565Z,6.23
2018-04-11T01:08:03.958Z,5.03
2018-04-11T01:10:30.985Z,3.90
2018-04-11T01:12:57.279Z,5.90
2018-04-11T01:15:23.561Z,5.93
2018-04-11T01:17:49.907Z,4.60
2018-04-11T01:20:16.156Z,5.00
2018-04-11T01:22:42.435Z,5.30
2018-04-11T01:25:08.696Z,4.83
2018-04-11T01:27:34.983Z,5.30
2018-04-11T01:30:01.251Z,9.20
2018-04-11T01:32:27.524Z,5.53
2018-04-11T01:34:53.840Z,4.70
2018-04-11T01:37:20.092Z,5.73
2018-04-11T01:39:46.372Z,6.03
2018-04-11T01:42:12.626Z,5.20
2018-04-11T01:44:38.903Z,6.30
2018-04-11T01:47:05.956Z,6.93
2018-04-11T01:49:32.264Z,5.83
2018-04-11T01:51:58.550Z,5.23
2018-04-11T01:54:25.585Z,5.83
2018-04-11T01:56:51.888Z,5.37
2018-04-11T01:59:30.814Z,5.07
2018-04-11T02:01:57.105Z,6.00
2018-04-11T02:04:23.432Z,5.10
2018-04-11T02:06:49.770Z,6.00
2018-04-11T02:09:16.100Z,7.63
2018-04-11T02:11:42.367Z,6.50
2018-04-11T02:14:09.062Z,6.37
2018-04-11T02:16:35.353Z,8.80
2018-04-11T02:19:01.670Z,7.37
2018-04-11T02:21:27.939Z,6.37
2018-04-11T02:23:54.926Z,9.07
2018-04-11T02:26:21.997Z,7.40
2018-04-11T02:28:48.977Z,8.27
2018-04-11T02:31:15.298Z,8.43
2018-04-11T02:33:43.604Z,7.73
2018-04-11T02:36:09.891Z,8.07
2018-04-11T02:38:36.151Z,7.47
2018-04-11T02:41:02.527Z,9.17
2018-04-11T02:43:29.548Z,8.87
2018-04-11T02:45:55.816Z,7.87
2018-04-11T02:48:22.881Z,9.40
2018-04-11T02:50:49.920Z,7.83
2018-04-11T02:53:16.209Z,8.83
2018-04-11T02:55:42.468Z,8.63
2018-04-11T02:58:08.770Z,8.00
2018-04-11T03:00:35.026Z,8.40
2018-04-11T03:03:01.305Z,9.47
2018-04-11T03:05:27.622Z,8.90
2018-04-11T03:07:53.894Z,8.07
2018-04-11T03:10:20.242Z,10.37
2018-04-11T03:12:46.535Z,8.30
2018-04-11T03:15:12.815Z,8.53
2018-04-11T03:17:39.079Z,9.80
2018-04-11T03:20:05.436Z,7.60
2018-04-11T03:22:32.586Z,7.43
2018-04-11T03:24:58.819Z,8.57
2018-04-11T03:27:25.134Z,8.87
2018-04-11T03:29:51.541Z,7.97
2018-04-11T03:32:17.920Z,8.17
2018-04-11T03:34:44.241Z,9.10
2018-04-11T03:40:07.364Z,9.23
2018-04-11T03:42:33.687Z,11.13
2018-04-11T03:44:59.977Z,9.13
2018-04-11T03:47:26.248Z,9.50
2018-04-11T03:49:53.258Z,10.30
2018-04-11T03:52:19.573Z,9.57
2018-04-11T03:54:45.863Z,9.13
2018-04-11T03:57:12.192Z,9.30
2018-04-11T03:59:39.385Z,10.27
2018-04-11T04:02:05.670Z,10.00
2018-04-11T04:04:31.980Z,8.80
2018-04-11T04:06:58.262Z,8.97
2018-04-11T04:09:24.512Z,9.40
2018-04-11T04:11:50.766Z,8.73
2018-04-11T04:14:29.363Z,8.03
2018-04-11T04:17:07.940Z,9.20
2018-04-11T04:19:46.631Z,9.20
2018-04-11T04:22:13.986Z,9.53
2018-04-11T04:24:41.058Z,9.67
2018-04-11T04:27:11.252Z,9.43
2018-04-11T04:29:39.600Z,8.90
2018-04-11T04:32:06.111Z,10.20
2018-04-11T04:34:32.908Z,11.20
2018-04-11T04:37:00.890Z,9.40
2018-04-11T04:39:27.130Z,10.10
2018-04-11T04:41:53.389Z,9.40
2018-04-11T04:44:20.413Z,10.40
2018-04-11T04:46:46.740Z,10.87
2018-04-11T04:49:13.780Z,10.60
2018-04-11T04:51:40.109Z,11.40
2018-04-11T04:54:06.518Z,11.77
2018-04-11T04:56:32.972Z,11.03
2018-04-11T04:59:02.447Z,10.63
2018-04-11T05:01:29.547Z,10.63
2018-04-11T05:03:55.804Z,10.87
2018-04-11T05:06:22.122Z,11.20
2018-04-11T05:08:48.408Z,10.37
2018-04-11T05:11:14.725Z,11.90
2018-04-11T05:13:40.971Z,14.40
2018-04-11T05:16:07.369Z,13.33
2018-04-11T05:18:34.952Z,13.00
2018-04-11T05:21:01.303Z,12.80
2018-04-11T05:23:27.620Z,12.03
2018-04-11T05:25:56.080Z,12.83
2018-04-11T05:28:23.174Z,12.83
2018-04-11T05:30:50.321Z,11.43
2018-04-11T05:33:16.683Z,11.43
2018-04-11T05:35:44.123Z,13.23
2018-04-11T05:38:10.490Z,12.60
2018-04-11T05:40:37.541Z,12.03
2018-04-11T05:43:04.882Z,16.20
2018-04-11T05:45:32.094Z,14.93
2018-04-11T05:47:58.413Z,11.90
2018-04-11T05:50:24.693Z,12.27
2018-04-11T05:52:50.967Z,15.97
2018-04-11T05:55:17.228Z,14.27
2018-04-11T05:57:43.503Z,15.27
2018-04-11T06:00:30.629Z,15.30
2018-04-11T06:02:57.674Z,14.20
2018-04-11T06:05:23.958Z,13.27
2018-04-11T06:07:50.279Z,12.77
2018-04-11T06:10:17.763Z,12.87
2018-04-11T06:12:44.040Z,14.33
2018-04-11T06:15:10.355Z,15.13
2018-04-11T06:17:36.636Z,14.60
2018-04-11T06:20:04.041Z,15.37
2018-04-11T06:22:32.066Z,13.63
2018-04-11T06:24:58.339Z,14.83
2018-04-11T06:27:24.641Z,14.40
2018-04-11T06:29:50.975Z,15.07
2018-04-11T06:32:17.246Z,16.23
2018-04-11T06:34:45.381Z,10.27
2018-04-11T06:37:12.478Z,10.60
2018-04-11T06:39:38.794Z,16.17
2018-04-11T06:42:05.789Z,13.90
2018-04-11T06:44:32.143Z,14.73
2018-04-11T06:47:00.498Z,18.00
2018-04-11T06:49:26.777Z,18.33
2018-04-11T06:51:53.068Z,17.80
2018-04-11T06:54:20.056Z,19.53
2018-04-11T06:56:46.363Z,18.60
2018-04-11T06:59:13.452Z,18.37
2018-04-11T07:01:39.732Z,19.30
2018-04-11T07:04:06.139Z,13.93
2018-04-11T07:06:32.369Z,20.83
2018-04-11T07:08:58.738Z,19.90
2018-04-11T07:11:24.967Z,21.63
2018-04-11T07:13:51.258Z,21.77
2018-04-11T07:16:17.580Z,17.07
2018-04-11T07:18:43.881Z,20.30
2018-04-11T07:21:10.217Z,18.10
2018-04-11T07:23:36.454Z,16.80
2018-04-11T07:26:03.713Z,15.83
2018-04-11T07:28:30.152Z,19.23
2018-04-11T07:30:56.582Z,15.10
2018-04-11T07:33:22.859Z,17.57
2018-04-11T07:35:51.189Z,24.70
2018-04-11T07:38:17.484Z,22.00
2018-04-11T07:40:44.470Z,19.33
2018-04-11T07:43:10.784Z,14.93
2018-04-11T07:45:37.812Z,16.03
2018-04-11T07:48:04.172Z,19.60
2018-04-11T07:50:31.209Z,16.23
2018-04-11T07:52:57.494Z,17.13
2018-04-11T07:55:23.772Z,20.20
2018-04-11T07:57:50.082Z,20.10
2018-04-11T08:00:16.353Z,18.43
2018-04-11T08:02:42.636Z,19.97
2018-04-11T08:05:08.902Z,17.27
2018-04-11T08:07:36.034Z,15.60
2018-04-11T08:10:02.335Z,19.93
2018-04-11T08:12:29.397Z,17.33
2018-04-11T08:14:55.698Z,18.73
2018-04-11T08:17:22.740Z,28.80
2018-04-11T08:19:49.045Z,14.90
2018-04-11T08:22:15.337Z,15.13
2018-04-11T08:24:41.629Z,14.93
2018-04-11T08:27:07.910Z,13.80
2018-04-11T08:29:35.458Z,14.80
2018-04-11T08:32:01.750Z,15.37
2018-04-11T08:34:29.706Z,13.63
2018-04-11T08:36:55.964Z,15.80
2018-04-11T08:39:23.047Z,15.53
2018-04-11T08:41:49.617Z,15.30
2018-04-11T08:44:15.851Z,16.07
2018-04-11T08:46:42.150Z,15.93
2018-04-11T08:49:08.366Z,15.00
2018-04-11T08:51:34.676Z,17.53
2018-04-11T08:54:00.866Z,15.87
2018-04-11T08:56:27.894Z,16.03
2018-04-11T08:58:54.211Z,14.97
2018-04-11T09:01:20.542Z,15.00
2018-04-11T09:03:46.843Z,15.43
2018-04-11T09:06:13.116Z,16.33
2018-04-11T09:08:40.129Z,15.60
2018-04-11T09:11:06.468Z,19.13
2018-04-11T09:13:32.720Z,14.37
2018-04-11T09:15:58.998Z,17.93
2018-04-11T09:18:26.186Z,16.77
2018-04-11T09:26:51.161Z,15.60
2018-04-11T09:29:17.472Z,18.37
2018-04-11T09:31:44.622Z,20.73
2018-04-11T09:34:11.517Z,18.30
2018-04-11T09:36:38.562Z,18.20
2018-04-11T09:39:07.018Z,16.73
2018-04-11T09:41:33.339Z,17.37
2018-04-11T09:43:59.600Z,17.70
2018-04-11T09:46:25.915Z,16.13
2018-04-11T09:48:52.180Z,15.77
2018-04-11T09:51:18.492Z,16.87
2018-04-11T09:53:44.844Z,16.97
2018-04-11T09:56:11.226Z,16.17
2018-04-11T09:58:37.548Z,15.63
2018-04-11T10:01:03.864Z,16.47
2018-04-11T10:03:30.185Z,17.57
2018-04-11T10:05:57.221Z,18.10
2018-04-11T10:11:17.748Z,17.23
2018-04-11T10:13:44.125Z,17.93
2018-04-11T10:16:10.438Z,15.97
2018-04-11T10:18:36.822Z,15.70
2018-04-11T10:21:03.969Z,16.27
2018-04-11T10:23:32.088Z,16.90
2018-04-11T10:25:58.485Z,17.47
2018-04-11T10:28:24.776Z,16.40
2018-04-11T10:30:52.774Z,15.43
2018-04-11T10:33:19.092Z,15.70
2018-04-11T10:35:46.171Z,14.37
2018-04-11T10:41:07.046Z,15.57
2018-04-11T10:43:33.328Z,17.47
2018-04-11T10:46:00.317Z,16.73
2018-04-11T10:48:33.843Z,17.40
2018-04-11T10:51:00.246Z,16.17
2018-04-11T10:53:26.498Z,17.13
2018-04-11T10:56:05.753Z,17.30
2018-04-11T10:58:32.133Z,17.07
2018-04-11T11:00:58.461Z,18.77
2018-04-11T11:03:24.762Z,17.37
2018-04-11T11:05:51.867Z,18.10
2018-04-11T11:08:18.149Z,15.77
2018-04-11T11:10:50.234Z,18.17
2018-04-11T11:13:16.600Z,17.97
2018-04-11T11:15:43.685Z,18.60
2018-04-11T11:18:11.101Z,16.30
2018-04-11T11:20:37.452Z,17.73
2018-04-11T11:23:03.747Z,20.93
2018-04-11T11:25:52.262Z,17.00
2018-04-11T11:28:19.352Z,16.57
2018-04-11T11:30:45.664Z,16.57
2018-04-11T11:33:20.735Z,18.30
2018-04-11T11:35:48.851Z,16.60
2018-04-11T11:38:29.151Z,17.57
2018-04-11T11:40:55.513Z,17.30
2018-04-11T11:43:21.784Z,23.57
2018-04-11T11:45:48.076Z,16.73
2018-04-11T11:48:14.401Z,21.87
2018-04-11T11:50:40.863Z,18.27
2018-04-11T11:53:07.224Z,17.07
2018-04-11T11:55:33.640Z,15.87
2018-04-11T11:57:59.965Z,18.00
2018-04-11T12:00:26.233Z,17.07
2018-04-11T12:02:59.920Z,16.43
2018-04-11T12:05:26.225Z,14.80
2018-04-11T12:07:53.254Z,16.80
2018-04-11T12:10:19.631Z,15.27
2018-04-11T12:12:46.846Z,15.20
2018-04-11T12:15:13.128Z,16.50
2018-04-11T12:17:40.197Z,16.93
2018-04-11T12:20:07.243Z,16.50
2018-04-11T12:22:33.525Z,17.73
2018-04-11T12:24:59.814Z,16.67
2018-04-11T12:27:47.328Z,16.50
2018-04-11T12:30:13.647Z,16.93
2018-04-11T12:32:40.673Z,17.07
2018-04-11T12:35:07.046Z,16.40
2018-04-11T12:37:34.168Z,16.83
2018-04-11T12:40:00.451Z,18.53
2018-04-11T12:42:42.855Z,16.37
2018-04-11T12:45:34.200Z,16.57
2018-04-11T12:48:00.574Z,17.27
2018-04-11T12:50:26.928Z,19.17
2018-04-11T12:52:53.193Z,20.40
2018-04-11T12:55:19.535Z,27.37
2018-04-11T12:57:45.860Z,19.73
2018-04-11T13:00:12.111Z,35.10
2018-04-11T13:02:38.476Z,22.50
2018-04-11T13:05:04.790Z,31.00
2018-04-11T13:07:31.092Z,27.30
2018-04-11T13:10:24.074Z,25.20
2018-04-11T13:12:50.422Z,23.93
2018-04-11T13:15:24.531Z,22.90
2018-04-11T13:17:51.565Z,25.80
2018-04-11T13:20:17.850Z,23.93
2018-04-11T13:22:44.112Z,25.13
2018-04-11T13:25:10.451Z,24.67
2018-04-11T13:27:36.701Z,25.63
2018-04-11T13:30:03.099Z,27.73
2018-04-11T13:32:30.158Z,26.30
2018-04-11T13:34:57.200Z,32.07
2018-04-11T13:37:23.543Z,26.37
2018-04-11T13:39:49.846Z,26.00
2018-04-11T13:42:17.223Z,25.53
2018-04-11T13:44:43.527Z,35.03
2018-04-11T13:47:10.561Z,36.90
2018-04-11T13:49:36.932Z,24.90
2018-04-11T13:52:03.313Z,23.10
2018-04-11T13:54:29.612Z,23.60
2018-04-11T13:56:56.626Z,24.00
2018-04-11T13:59:22.910Z,21.80
2018-04-11T14:01:49.958Z,24.60
2018-04-11T14:04:16.490Z,23.63
2018-04-11T14:06:42.833Z,23.90
2018-04-11T14:09:09.163Z,24.40
2018-04-11T14:11:41.243Z,24.10
2018-04-11T14:14:07.618Z,24.67
2018-04-11T14:16:34.005Z,23.80
2018-04-11T14:19:00.426Z,23.20
2018-04-11T14:21:27.441Z,25.47
2018-04-11T14:23:54.462Z,21.97
2018-04-11T14:26:20.802Z,23.60
2018-04-11T14:28:47.154Z,22.80
2018-04-11T14:31:14.433Z,23.07
2018-04-11T14:33:40.793Z,22.97
2018-04-11T14:36:07.114Z,21.87
2018-04-11T14:38:33.482Z,22.73
2018-04-11T14:40:59.821Z,25.13
2018-04-11T14:43:26.126Z,20.77
2018-04-11T14:45:52.465Z,22.57
2018-04-11T14:48:19.567Z,23.53
2018-04-11T14:50:45.831Z,23.43
2018-04-11T14:53:12.196Z,20.47
2018-04-11T14:55:39.291Z,22.30
2018-04-11T14:58:05.689Z,24.57
2018-04-11T15:00:31.987Z,22.10
2018-04-11T15:02:58.314Z,22.70
2018-04-11T15:05:24.604Z,24.57
2018-04-11T15:07:50.944Z,23.07
2018-04-11T15:10:17.258Z,25.07
2018-04-11T15:12:43.535Z,21.63
2018-04-11T15:15:09.926Z,21.73
2018-04-11T15:17:36.307Z,21.80
2018-04-11T15:20:02.624Z,21.53
2018-04-11T15:22:36.122Z,20.17
2018-04-11T15:25:03.035Z,20.23
2018-04-11T15:27:29.370Z,20.50
2018-04-11T15:29:55.720Z,18.40
2018-04-11T15:32:22.187Z,22.70
2018-04-11T15:34:49.253Z,16.73
2018-04-11T15:37:16.343Z,16.40
2018-04-11T15:39:42.737Z,15.83
2018-04-11T15:42:09.064Z,15.63
2018-04-11T15:44:35.372Z,15.40
2018-04-11T15:47:01.676Z,15.37
2018-04-11T15:49:28.757Z,14.67
2018-04-11T15:51:55.748Z,15.33
2018-04-11T15:54:22.095Z,13.87
2018-04-11T15:56:48.573Z,14.10
2018-04-11T15:59:14.809Z,15.60
2018-04-11T16:01:41.106Z,12.97
2018-04-11T16:04:07.421Z,12.80
2018-04-11T16:06:34.529Z,12.30
2018-04-11T16:09:01.654Z,13.03
2018-04-11T16:11:27.995Z,12.13
2018-04-11T16:13:55.088Z,15.50
2018-04-11T16:16:21.491Z,19.50
2018-04-11T16:18:47.775Z,21.87
2018-04-11T16:21:14.128Z,22.10
2018-04-11T16:23:40.423Z,23.20
2018-04-11T16:26:07.522Z,24.43
2018-04-11T16:28:33.894Z,27.00
2018-04-11T16:31:00.259Z,27.50
2018-04-11T16:33:26.522Z,26.20
2018-04-11T16:35:53.573Z,26.63
2018-04-11T16:38:20.641Z,26.70
2018-04-11T16:40:47.721Z,24.73
2018-04-11T16:43:14.040Z,26.43
2018-04-11T16:45:41.091Z,25.70
2018-04-11T16:48:24.145Z,25.33
2018-04-11T16:50:50.553Z,24.43
2018-04-11T16:53:16.816Z,24.83
2018-04-11T16:55:43.854Z,23.63
2018-04-11T16:58:10.128Z,24.87
2018-04-11T17:00:37.366Z,26.17
2018-04-11T17:03:03.737Z,23.60
2018-04-11T17:05:30.766Z,25.00
2018-04-11T17:07:57.072Z,24.57
2018-04-11T17:10:23.432Z,26.07
2018-04-11T17:12:49.663Z,26.30
2018-04-11T17:15:16.071Z,26.40
2018-04-11T17:17:43.159Z,25.40
2018-04-11T17:20:09.419Z,26.83
2018-04-11T17:22:48.044Z,27.40
2018-04-11T17:25:26.636Z,26.93
2018-04-11T17:28:05.157Z,28.83
2018-04-11T17:30:44.645Z,28.27
2018-04-11T17:33:10.938Z,27.90
2018-04-11T17:35:37.265Z,29.57
2018-04-11T17:38:03.683Z,28.37
2018-04-11T17:40:29.929Z,29.73
2018-04-11T17:42:56.217Z,31.20
2018-04-11T17:45:22.515Z,30.83
2018-04-11T17:47:48.815Z,32.23
2018-04-11T17:50:15.882Z,34.27
2018-04-11T17:52:42.742Z,35.10
2018-04-11T17:55:09.142Z,32.63
2018-04-11T18:03:25.359Z,36.67
2018-04-11T18:05:52.360Z,34.77
2018-04-11T18:08:18.690Z,33.27
2018-04-11T18:10:44.951Z,39.77
2018-04-11T18:13:11.246Z,35.70
2018-04-11T18:15:38.308Z,37.57
2018-04-11T18:18:04.662Z,39.10
2018-04-11T18:20:30.903Z,40.47
2018-04-11T18:22:57.178Z,43.70
2018-04-11T18:25:23.474Z,38.63
2018-04-11T18:27:49.759Z,41.83
2018-04-11T18:30:16.083Z,41.10
2018-04-11T18:32:42.351Z,41.03
2018-04-11T18:35:08.624Z,40.67
2018-04-11T18:37:35.053Z,39.00
2018-04-11T18:40:02.836Z,39.67
2018-04-11T18:42:29.178Z,42.83
2018-04-11T18:44:55.482Z,38.60
2018-04-11T18:47:21.853Z,36.70
2018-04-11T18:49:48.131Z,37.43
2018-04-11T18:52:14.576Z,37.17
2018-04-11T18:54:41.623Z,39.70
2018-04-11T18:57:07.926Z,40.40
2018-04-11T18:59:34.293Z,38.40
2018-04-11T19:02:00.595Z,38.80
2018-04-11T19:04:26.849Z,40.33
2018-04-11T19:06:53.126Z,35.40
2018-04-11T19:09:19.455Z,35.40
2018-04-11T19:11:50.506Z,33.63
2018-04-11T19:14:22.707Z,36.00
2018-04-11T19:16:49.009Z,34.33
2018-04-11T19:19:15.504Z,35.07
2018-04-11T19:21:46.448Z,32.63
2018-04-11T19:24:12.799Z,29.67
2018-04-11T19:26:39.116Z,31.87
2018-04-11T19:29:05.450Z,30.97
2018-04-11T19:31:31.756Z,38.23
2018-04-11T19:33:58.080Z,44.27
2018-04-11T19:36:25.131Z,45.13
2018-04-11T19:38:51.448Z,45.53
2018-04-11T19:41:17.929Z,41.57
2018-04-11T19:43:45.103Z,46.00
2018-04-11T19:46:12.137Z,47.23
2018-04-11T19:48:38.463Z,47.43
2018-04-11T19:51:04.790Z,43.10
2018-04-11T19:53:31.087Z,50.27
2018-04-11T19:55:58.121Z,53.90
2018-04-11T19:58:36.789Z,54.93
2018-04-11T20:01:03.169Z,55.87
2018-04-11T20:03:40.231Z,48.27
2018-04-11T20:06:06.665Z,47.27
2018-04-11T20:08:33.689Z,49.30
2018-04-11T20:10:59.992Z,59.60
2018-04-11T20:13:34.413Z,52.40
2018-04-11T20:16:00.806Z,50.50
2018-04-11T20:18:27.123Z,57.67
2018-04-11T20:20:54.352Z,51.13
2018-04-11T20:23:21.372Z,55.83
2018-04-11T20:25:47.681Z,61.07
2018-04-11T20:28:14.009Z,52.53
2018-04-11T20:30:40.321Z,53.70
2018-04-11T20:33:06.662Z,48.70
2018-04-11T20:35:33.075Z,51.07
2018-04-11T20:38:00.194Z,49.17
2018-04-11T20:40:27.248Z,54.57
2018-04-11T20:42:59.953Z,49.33
2018-04-11T20:45:26.941Z,53.53
2018-04-11T20:47:53.576Z,49.30
2018-04-11T20:50:19.897Z,56.40
2018-04-11T20:52:47.629Z,45.40
2018-04-11T20:55:13.922Z,52.53
2018-04-11T20:57:41.055Z,52.37
2018-04-11T21:00:07.347Z,45.73
2018-04-11T21:02:33.660Z,43.53
2018-04-11T21:05:00.817Z,48.97
2018-04-11T21:07:27.866Z,49.27
2018-04-11T21:09:55.005Z,47.30
2018-04-11T21:12:21.286Z,57.87
2018-04-11T21:14:47.565Z,47.50
2018-04-11T21:17:13.855Z,53.27
2018-04-11T21:19:40.218Z,45.93
2018-04-11T21:22:06.512Z,47.60
2018-04-11T21:24:32.843Z,48.57
2018-04-11T21:26:59.137Z,46.97
2018-04-11T21:29:30.030Z,43.20
2018-04-11T21:31:56.333Z,44.63
2018-04-11T21:34:23.362Z,43.33
2018-04-11T21:36:53.674Z,38.97
2018-04-11T21:39:19.995Z,45.27
2018-04-11T21:41:46.244Z,52.50
2018-04-11T21:44:12.563Z,50.00
2018-04-11T21:46:39.588Z,50.30
2018-04-11T21:49:05.972Z,48.07
2018-04-11T21:51:32.972Z,43.73
2018-04-11T21:53:59.280Z,46.23
2018-04-11T21:56:26.266Z,50.60
2018-04-11T21:58:52.552Z,51.57
2018-04-11T22:01:22.117Z,46.90
2018-04-11T22:03:48.398Z,49.07
2018-04-11T22:06:14.638Z,47.43
2018-04-11T22:08:40.912Z,52.30
2018-04-11T22:11:09.075Z,47.23
2018-04-11T22:14:00.091Z,43.40
2018-04-11T22:16:28.476Z,42.97
2018-04-11T22:18:55.481Z,51.27
2018-04-11T22:21:22.503Z,51.37
2018-04-11T22:23:48.836Z,45.90
2018-04-11T22:26:15.847Z,52.70
2018-04-11T22:28:42.820Z,49.87
2018-04-11T22:31:09.062Z,46.37
2018-04-11T22:33:35.485Z,46.67
2018-04-11T22:36:02.490Z,45.23
2018-04-11T22:38:28.800Z,42.37
2018-04-11T22:40:55.044Z,41.23
2018-04-11T22:43:21.344Z,38.47
2018-04-11T22:45:58.009Z,46.00
2018-04-11T22:48:24.359Z,43.23
2018-04-11T22:50:51.417Z,41.43
2018-04-11T22:53:17.703Z,45.57
2018-04-11T22:55:44.718Z,42.67
2018-04-11T22:58:10.990Z,35.17
2018-04-11T23:00:59.180Z,49.30
2018-04-11T23:03:25.454Z,43.30
2018-04-11T23:05:51.725Z,44.20
2018-04-11T23:08:24.436Z,47.97
2018-04-11T23:10:51.571Z,36.80
2018-04-11T23:13:17.861Z,44.70
2018-04-11T23:15:44.112Z,44.53
2018-04-11T23:18:10.481Z,46.43
2018-04-11T23:20:36.824Z,47.97
2018-04-11T23:23:03.120Z,38.77
2018-04-11T23:25:29.437Z,47.50
2018-04-11T23:27:55.762Z,46.20
2018-04-11T23:30:22.096Z,40.93
2018-04-11T23:32:48.338Z,42.57
2018-04-11T23:35:14.591Z,43.07
2018-04-11T23:37:40.963Z,46.00
2018-04-11T23:40:08.138Z,44.43
2018-04-11T23:42:34.423Z,38.13
2018-04-11T23:45:00.718Z,43.10
2018-04-11T23:47:27.842Z,46.40
2018-04-11T23:49:54.165Z,44.37
2018-04-11T23:52:20.434Z,47.30
2018-04-11T23:54:46.707Z,42.00
2018-04-11T23:57:13.760Z,40.70
2018-04-11T23:59:40.768Z,51.67
